Time;durP1;ratioP1;P1;durP2;ratioP2;P2;SDS_P1;SDS_P2;PMS_P1;PMS_P2;Temp;Humidity;BMP_temperature;BMP_pressure;BME280_temperature;BME280_humidity;BME280_pressure;Samples;Min_cycle;Max_cycle;Signal;HPM_P1;HPM_P2
2023/09/26 00:00:20;;;;;;;674.50;635.23;;;10.40;99.90;;;;;;5074314;28;20450;-68
2023/09/26 00:02:47;;;;;;;689.17;649.00;;;10.30;99.90;;;;;;5074097;28;20911;-68
2023/09/26 00:05:15;;;;;;;711.87;668.30;;;10.30;99.90;;;;;;5074166;28;20446;-68
2023/09/26 00:07:42;;;;;;;703.53;661.33;;;10.30;99.90;;;;;;5074019;28;20486;-68
2023/09/26 00:10:12;;;;;;;769.53;722.37;;;10.10;99.90;;;;;;5073857;28;20458;-68
2023/09/26 00:12:39;;;;;;;774.10;725.63;;;10.10;99.90;;;;;;5074082;28;20451;-68
2023/09/26 00:15:07;;;;;;;806.93;757.50;;;10.20;99.90;;;;;;5074068;28;20514;-68
2023/09/26 00:17:35;;;;;;;772.30;724.03;;;10.20;99.90;;;;;;5073942;28;20447;-68
2023/09/26 00:20:04;;;;;;;805.00;755.63;;;10.20;99.90;;;;;;5073659;28;20462;-68
2023/09/26 00:22:31;;;;;;;880.60;826.40;;;10.20;99.90;;;;;;5073496;28;20451;-68
2023/09/26 00:24:58;;;;;;;873.63;818.97;;;10.30;99.90;;;;;;5073911;28;20882;-68
2023/09/26 00:27:27;;;;;;;858.80;806.17;;;10.30;99.90;;;;;;5073595;28;20461;-68
2023/09/26 00:29:54;;;;;;;867.27;814.83;;;10.30;99.90;;;;;;5073699;28;20450;-68
2023/09/26 00:32:21;;;;;;;882.13;828.20;;;10.40;99.90;;;;;;5073505;28;20476;-68
2023/09/26 00:34:48;;;;;;;874.07;820.20;;;10.40;99.90;;;;;;5073322;28;20843;-68
2023/09/26 00:37:15;;;;;;;874.77;820.77;;;10.50;99.90;;;;;;5073262;28;20447;-68
2023/09/26 00:39:41;;;;;;;870.60;817.13;;;10.50;99.90;;;;;;5073216;28;20957;-68
2023/09/26 00:42:08;;;;;;;870.70;816.40;;;10.50;99.90;;;;;;5073240;28;20454;-68
2023/09/26 00:44:36;;;;;;;880.13;824.70;;;10.60;99.90;;;;;;5073442;28;20815;-68
2023/09/26 00:47:03;;;;;;;885.87;830.87;;;10.60;99.90;;;;;;5073076;28;20455;-68
2023/09/26 00:49:31;;;;;;;871.07;817.17;;;10.70;99.90;;;;;;5073028;28;20829;-68
2023/09/26 00:52:01;;;;;;;855.00;802.83;;;10.60;99.90;;;;;;5073179;28;20841;-68
2023/09/26 00:54:28;;;;;;;852.30;800.43;;;10.60;99.90;;;;;;5073073;28;20486;-68
2023/09/26 00:56:56;;;;;;;861.40;809.43;;;10.50;99.90;;;;;;5073326;28;20849;-68
2023/09/26 00:59:23;;;;;;;856.23;805.03;;;10.50;99.90;;;;;;5073018;28;20881;-68
2023/09/26 01:01:52;;;;;;;824.80;775.27;;;10.40;99.90;;;;;;5072927;28;20450;-68
2023/09/26 01:04:19;;;;;;;816.60;768.50;;;10.40;99.90;;;;;;5072763;28;20443;-68
2023/09/26 01:06:47;;;;;;;841.50;791.70;;;10.20;99.90;;;;;;5072903;28;20486;-68
2023/09/26 01:09:14;;;;;;;861.20;809.97;;;10.20;99.90;;;;;;5072698;28;20533;-68
2023/09/26 01:11:41;;;;;;;886.83;832.57;;;10.20;99.90;;;;;;5072990;28;20457;-68
2023/09/26 01:14:08;;;;;;;897.83;841.80;;;10.20;99.90;;;;;;5072650;28;20533;-68
2023/09/26 01:16:35;;;;;;;915.93;858.90;;;10.30;99.90;;;;;;5072741;28;20446;-68
2023/09/26 01:19:03;;;;;;;905.23;849.10;;;10.30;99.90;;;;;;5072525;28;20802;-68
2023/09/26 01:21:30;;;;;;;899.57;843.97;;;10.30;99.90;;;;;;5072349;28;20535;-68
2023/09/26 01:23:58;;;;;;;886.60;831.80;;;10.30;99.90;;;;;;5072638;28;20494;-68
2023/09/26 01:26:26;;;;;;;874.97;821.47;;;10.20;99.90;;;;;;5072740;28;20823;-68
2023/09/26 01:28:53;;;;;;;864.47;811.47;;;10.20;99.90;;;;;;5072736;28;20885;-68
2023/09/26 01:31:20;;;;;;;865.37;811.87;;;10.10;99.90;;;;;;5072262;28;20542;-68
2023/09/26 01:33:47;;;;;;;865.50;812.07;;;10.10;99.90;;;;;;5072293;28;20475;-68
2023/09/26 01:36:14;;;;;;;898.90;843.70;;;10.00;99.90;;;;;;5072519;28;20446;-68
2023/09/26 01:38:41;;;;;;;894.60;840.10;;;9.90;99.90;;;;;;5072544;28;20452;-68
2023/09/26 01:41:09;;;;;;;882.33;827.70;;;9.90;99.90;;;;;;5072203;28;20533;-68
2023/09/26 01:43:37;;;;;;;882.23;827.13;;;9.80;99.90;;;;;;5072431;28;20481;-68
2023/09/26 01:46:04;;;;;;;900.07;844.13;;;9.80;99.90;;;;;;5072202;28;20457;-68
2023/09/26 01:48:31;;;;;;;904.00;847.50;;;9.80;99.90;;;;;;5072514;28;20450;-68
2023/09/26 01:50:58;;;;;;;905.07;847.87;;;9.80;99.90;;;;;;5072050;28;20457;-68
2023/09/26 01:53:25;;;;;;;921.63;862.60;;;9.70;99.90;;;;;;5072429;28;20447;-68
2023/09/26 01:55:51;;;;;;;943.83;881.93;;;9.80;99.90;;;;;;5072205;28;20569;-68
2023/09/26 01:58:20;;;;;;;968.93;904.03;;;9.80;99.90;;;;;;5072181;28;20493;-68
2023/09/26 02:00:46;;;;;;;968.37;901.77;;;9.80;99.90;;;;;;5071601;28;20485;-68
2023/09/26 02:03:13;;;;;;;981.70;914.07;;;9.90;99.90;;;;;;5072141;28;20453;-68
2023/09/26 02:05:40;;;;;;;987.57;920.27;;;9.90;99.90;;;;;;5072291;28;20529;-68
2023/09/26 02:08:07;;;;;;;996.67;928.17;;;9.90;99.90;;;;;;5072169;28;20454;-68
2023/09/26 02:10:35;;;;;;;993.80;925.87;;;9.90;99.90;;;;;;5072055;28;20873;-68
2023/09/26 02:13:02;;;;;;;990.60;924.60;;;9.80;99.90;;;;;;5072122;28;20828;-68
2023/09/26 02:15:30;;;;;;;980.97;915.93;;;9.80;99.90;;;;;;5071906;28;21015;-68
2023/09/26 02:17:57;;;;;;;973.80;910.90;;;9.70;99.90;;;;;;5071912;28;20450;-68
2023/09/26 02:20:24;;;;;;;970.73;908.73;;;9.60;99.90;;;;;;5072026;28;20457;-68
2023/09/26 02:22:51;;;;;;;964.60;902.63;;;9.50;99.90;;;;;;5071683;28;20982;-68
2023/09/26 02:25:19;;;;;;;978.27;914.87;;;9.40;99.90;;;;;;5072378;28;20447;-68
2023/09/26 02:27:47;;;;;;;969.23;905.90;;;9.40;99.90;;;;;;5071751;28;20450;-68
2023/09/26 02:30:16;;;;;;;964.77;901.33;;;9.40;99.90;;;;;;5071989;28;20822;-68
2023/09/26 02:32:45;;;;;;;971.80;907.40;;;9.40;99.90;;;;;;5071975;28;20458;-68
2023/09/26 02:35:14;;;;;;;973.97;909.00;;;9.30;99.90;;;;;;5071671;28;20489;-68
2023/09/26 02:37:41;;;;;;;963.30;897.10;;;9.30;99.90;;;;;;5071774;28;20450;-68
2023/09/26 02:40:10;;;;;;;979.47;911.87;;;9.30;99.90;;;;;;5071608;28;20450;-68
2023/09/26 02:42:37;;;;;;;990.63;920.83;;;9.30;99.90;;;;;;5071910;28;20891;-68
2023/09/26 02:45:05;;;;;;;984.03;914.10;;;9.40;99.90;;;;;;5071806;28;20534;-68
2023/09/26 02:47:32;;;;;;;991.33;921.57;;;9.40;99.90;;;;;;5071753;28;20939;-68
2023/09/26 02:50:00;;;;;;;989.20;918.77;;;9.40;99.90;;;;;;5071556;28;20453;-68
2023/09/26 02:52:27;;;;;;;981.03;910.33;;;9.40;99.90;;;;;;5071470;28;20446;-68
2023/09/26 02:54:54;;;;;;;992.33;920.40;;;9.40;99.90;;;;;;5071415;28;20489;-68
2023/09/26 02:57:21;;;;;;;1005.87;934.67;;;9.50;99.90;;;;;;5071797;28;20543;-68
2023/09/26 02:59:48;;;;;;;999.33;928.23;;;9.50;99.90;;;;;;5071642;28;20444;-68
2023/09/26 03:02:15;;;;;;;984.23;913.20;;;9.40;99.90;;;;;;5071451;28;20511;-68
2023/09/26 03:04:42;;;;;;;1004.00;930.77;;;9.30;99.90;;;;;;5071477;28;20980;-68
2023/09/26 03:07:11;;;;;;;1008.87;936.00;;;9.30;99.90;;;;;;5071379;28;20453;-68
2023/09/26 03:09:38;;;;;;;1012.30;938.43;;;9.30;99.90;;;;;;5071598;28;20545;-68
2023/09/26 03:12:06;;;;;;;1033.37;955.17;;;9.30;99.90;;;;;;5073279;28;20452;-68
2023/09/26 03:14:33;;;;;;;1035.30;958.23;;;9.40;99.90;;;;;;5075059;28;20561;-68
2023/09/26 03:17:00;;;;;;;1046.03;964.53;;;9.40;99.90;;;;;;5075005;28;20457;-68
2023/09/26 03:19:27;;;;;;;1033.20;952.30;;;9.40;99.90;;;;;;5074842;28;20959;-68
2023/09/26 03:21:54;;;;;;;1047.63;965.07;;;9.40;99.90;;;;;;5074656;28;20495;-68
2023/09/26 03:24:22;;;;;;;1049.60;963.60;;;9.40;99.90;;;;;;5075031;28;20446;-68
2023/09/26 03:26:49;;;;;;;1052.67;967.10;;;9.40;99.90;;;;;;5074798;28;20450;-68
2023/09/26 03:29:15;;;;;;;1052.03;966.43;;;9.40;99.90;;;;;;5074809;28;20446;-68
2023/09/26 03:31:44;;;;;;;1056.43;971.03;;;9.50;99.90;;;;;;5074483;28;20447;-68
2023/09/26 03:34:11;;;;;;;1056.43;968.27;;;9.40;99.90;;;;;;5074370;28;20490;-68
2023/09/26 03:36:38;;;;;;;1049.03;960.10;;;9.50;99.90;;;;;;5074815;28;20545;-68
2023/09/26 03:39:05;;;;;;;1056.10;968.30;;;9.50;99.90;;;;;;5074767;28;20813;-68
2023/09/26 03:41:33;;;;;;;1047.77;957.07;;;9.50;99.90;;;;;;5074544;28;20450;-68
2023/09/26 03:44:00;;;;;;;1036.10;946.23;;;9.50;99.90;;;;;;5074535;28;20446;-68
2023/09/26 03:46:27;;;;;;;1048.90;955.50;;;9.60;99.90;;;;;;5074374;28;20447;-68
2023/09/26 03:48:54;;;;;;;1038.00;944.70;;;9.70;99.90;;;;;;5074776;28;20451;-68
2023/09/26 03:51:21;;;;;;;1037.23;945.73;;;9.70;99.90;;;;;;5074370;28;20450;-68
2023/09/26 03:53:48;;;;;;;1038.07;946.53;;;9.70;99.90;;;;;;5074337;28;20450;-68
2023/09/26 03:56:15;;;;;;;1032.70;941.47;;;9.70;99.90;;;;;;5074331;28;20485;-68
2023/09/26 03:58:44;;;;;;;1034.87;942.73;;;9.80;99.90;;;;;;5074156;28;20667;-68
2023/09/26 04:01:11;;;;;;;1031.93;938.93;;;9.80;99.90;;;;;;5073980;28;20446;-68
2023/09/26 04:03:39;;;;;;;1022.07;929.30;;;9.80;99.90;;;;;;5074021;28;20460;-68
2023/09/26 04:06:07;;;;;;;1020.43;928.67;;;9.80;99.90;;;;;;5074257;28;20453;-68
2023/09/26 04:08:34;;;;;;;1030.70;938.07;;;9.80;99.90;;;;;;5074152;28;20446;-68
2023/09/26 04:11:01;;;;;;;1035.00;943.77;;;9.80;99.90;;;;;;5073868;28;20450;-67
2023/09/26 04:13:28;;;;;;;1038.97;945.50;;;9.70;99.90;;;;;;5073963;28;20446;-67
2023/09/26 04:15:57;;;;;;;1035.53;942.43;;;9.70;99.90;;;;;;5073724;28;20506;-68
2023/09/26 04:18:24;;;;;;;1038.03;945.97;;;9.70;99.90;;;;;;5073884;28;20934;-68
2023/09/26 04:20:51;;;;;;;1046.17;954.47;;;9.60;99.90;;;;;;5073621;28;20955;-68
2023/09/26 04:23:18;;;;;;;1046.20;952.97;;;9.60;99.90;;;;;;5073386;28;20446;-67
2023/09/26 04:25:45;;;;;;;1038.07;945.10;;;9.60;99.90;;;;;;5073815;28;20449;-67
2023/09/26 04:28:12;;;;;;;1048.37;955.67;;;9.60;99.90;;;;;;5073506;28;20458;-68
2023/09/26 04:30:39;;;;;;;1043.83;951.77;;;9.50;99.90;;;;;;5073377;28;20500;-68
2023/09/26 04:33:08;;;;;;;1042.80;950.70;;;9.50;99.90;;;;;;5073461;28;20454;-68
2023/09/26 04:35:36;;;;;;;1031.77;941.13;;;9.40;99.90;;;;;;5073430;28;20485;-67
2023/09/26 04:38:03;;;;;;;1031.97;939.40;;;9.40;99.90;;;;;;5073506;28;20446;-68
2023/09/26 04:40:30;;;;;;;1022.13;930.03;;;9.40;99.90;;;;;;5073423;28;20451;-67
2023/09/26 04:43:01;;;;;;;1023.97;933.40;;;9.40;99.90;;;;;;5073239;28;20911;-67
2023/09/26 04:45:30;;;;;;;1026.03;934.57;;;9.40;99.90;;;;;;5073530;28;20500;-67
2023/09/26 04:47:59;;;;;;;1033.13;942.27;;;9.40;99.90;;;;;;5073437;28;20450;-67
2023/09/26 04:50:28;;;;;;;1024.67;933.40;;;9.40;99.90;;;;;;5073046;28;20450;-67
2023/09/26 04:52:55;;;;;;;1049.10;954.23;;;9.40;99.90;;;;;;5072984;28;20453;-67
2023/09/26 04:55:22;;;;;;;1064.67;970.17;;;9.30;99.90;;;;;;5072984;28;20824;-68
2023/09/26 04:57:49;;;;;;;1064.07;967.27;;;9.20;99.90;;;;;;5072922;28;20478;-67
2023/09/26 05:00:18;;;;;;;1075.67;975.43;;;9.20;99.90;;;;;;5073024;28;20529;-67
2023/09/26 05:02:45;;;;;;;1069.57;969.90;;;9.20;99.90;;;;;;5072876;28;20590;-67
2023/09/26 05:05:12;;;;;;;1061.60;962.83;;;9.20;99.90;;;;;;5073005;28;20439;-67
2023/09/26 05:07:44;;;;;;;1057.07;958.27;;;9.20;99.90;;;;;;5072865;28;20825;-67
2023/09/26 05:10:11;;;;;;;1064.60;966.60;;;9.10;99.90;;;;;;5072595;28;20496;-67
2023/09/26 05:12:40;;;;;;;1067.90;969.40;;;9.10;99.90;;;;;;5072812;28;20449;-67
2023/09/26 05:15:12;;;;;;;1066.87;967.47;;;9.10;99.90;;;;;;5072857;28;20552;-67
2023/09/26 05:17:41;;;;;;;1067.90;967.90;;;9.10;99.90;;;;;;5072755;28;20446;-67
2023/09/26 05:20:11;;;;;;;1050.57;951.20;;;9.10;99.90;;;;;;5072411;28;20455;-67
2023/09/26 05:22:39;;;;;;;1069.10;969.90;;;9.10;99.90;;;;;;5072231;28;20490;-67
2023/09/26 05:25:08;;;;;;;1079.67;978.60;;;9.10;99.90;;;;;;5072688;28;20453;-67
2023/09/26 05:27:37;;;;;;;1071.73;965.57;;;9.00;99.90;;;;;;5072574;28;20497;-67
2023/09/26 05:30:05;;;;;;;1051.93;949.17;;;9.10;99.90;;;;;;5072410;28;20456;-67
2023/09/26 05:32:32;;;;;;;1054.37;952.37;;;9.00;99.90;;;;;;5072611;28;20454;-67
2023/09/26 05:34:59;;;;;;;1064.27;959.83;;;9.00;99.90;;;;;;5071477;28;20561;-67
2023/09/26 05:37:26;;;;;;;1062.07;955.13;;;9.00;99.90;;;;;;5072467;28;20452;-67
2023/09/26 05:39:52;;;;;;;1044.50;935.80;;;9.00;99.90;;;;;;5072396;28;20546;-67
2023/09/26 05:42:22;;;;;;;1040.53;933.47;;;9.10;99.90;;;;;;5072101;28;20821;-67
2023/09/26 05:44:49;;;;;;;1040.17;933.50;;;9.10;99.90;;;;;;5071650;28;20454;-67
2023/09/26 05:47:15;;;;;;;1045.70;940.20;;;9.20;99.90;;;;;;5071053;28;20797;-67
2023/09/26 05:49:42;;;;;;;1040.80;935.50;;;9.20;99.90;;;;;;5071637;28;20450;-69
2023/09/26 05:52:09;;;;;;;1044.43;939.47;;;9.20;99.90;;;;;;5072215;28;20541;-67
2023/09/26 05:54:36;;;;;;;1052.23;948.13;;;9.20;99.90;;;;;;5071992;28;20455;-67
2023/09/26 05:57:03;;;;;;;1046.93;940.70;;;9.30;99.90;;;;;;5071497;28;20475;-67
2023/09/26 05:59:31;;;;;;;1051.97;946.00;;;9.30;99.90;;;;;;5071551;28;20446;-67
2023/09/26 06:01:59;;;;;;;1045.90;939.33;;;9.40;99.90;;;;;;5072014;28;20450;-67
2023/09/26 06:04:25;;;;;;;1036.33;929.47;;;9.50;99.90;;;;;;5071830;28;20930;-67
2023/09/26 06:06:52;;;;;;;1033.90;927.10;;;9.60;99.90;;;;;;5072130;28;20443;-67
2023/09/26 06:09:19;;;;;;;1033.23;928.13;;;9.70;99.90;;;;;;5072361;28;20794;-67
2023/09/26 06:11:46;;;;;;;1030.93;926.13;;;9.80;99.90;;;;;;5072034;28;20818;-67
2023/09/26 06:14:13;;;;;;;1030.60;926.70;;;9.90;99.90;;;;;;5071797;28;20446;-67
2023/09/26 06:16:41;;;;;;;1031.57;928.60;;;10.00;99.90;;;;;;5071859;28;20474;-67
2023/09/26 06:19:08;;;;;;;1034.97;933.27;;;10.00;99.90;;;;;;5071807;28;20451;-67
2023/09/26 06:21:34;;;;;;;1024.53;922.73;;;10.10;99.90;;;;;;5071833;28;20450;-69
2023/09/26 06:24:04;;;;;;;1027.47;926.07;;;10.20;99.90;;;;;;5072366;28;20446;-68
2023/09/26 06:26:31;;;;;;;1036.43;933.53;;;10.30;99.90;;;;;;5071760;28;20854;-67
2023/09/26 06:28:58;;;;;;;1032.07;928.33;;;10.40;99.90;;;;;;5072127;28;20457;-67
2023/09/26 06:31:25;;;;;;;1032.37;928.93;;;10.50;99.90;;;;;;5091264;28;20450;-67
2023/09/26 06:33:54;;;;;;;1033.67;930.10;;;10.60;99.90;;;;;;5091746;28;20960;-67
2023/09/26 06:36:21;;;;;;;1038.53;936.63;;;10.70;99.90;;;;;;5091647;28;20481;-67
2023/09/26 06:38:48;;;;;;;1036.10;935.03;;;10.80;99.90;;;;;;5091617;28;20544;-67
2023/09/26 06:41:15;;;;;;;1041.00;941.23;;;10.80;99.90;;;;;;5090761;28;20933;-67
2023/09/26 06:43:42;;;;;;;1048.30;949.40;;;10.90;99.90;;;;;;5091560;28;20452;-67
2023/09/26 06:46:09;;;;;;;1051.83;953.77;;;11.00;99.90;;;;;;5093185;28;20476;-67
2023/09/26 06:48:38;;;;;;;1058.10;962.00;;;11.10;99.90;;;;;;5095078;28;20949;-67
2023/09/26 06:51:08;;;;;;;1054.37;959.67;;;11.10;99.90;;;;;;5086566;28;20446;-67
2023/09/26 06:53:35;;;;;;;1054.07;959.83;;;11.20;99.90;;;;;;5074630;28;20537;-67
2023/09/26 06:56:03;;;;;;;1051.87;959.40;;;11.30;99.90;;;;;;5074127;28;20636;-67
2023/09/26 06:58:29;;;;;;;1041.47;952.00;;;11.40;99.90;;;;;;5073958;28;20528;-67
2023/09/26 07:00:56;;;;;;;1036.65;949.80;;;11.50;99.90;;;;;;5074826;28;20506;-67
2023/09/26 07:03:23;;;;;;;1006.00;934.63;;;11.60;99.90;;;;;;5074135;28;20472;-67
2023/09/26 07:05:50;;;;;;;990.13;924.53;;;11.70;99.90;;;;;;5074712;28;20203;-67
2023/09/26 07:08:18;;;;;;;973.83;910.50;;;11.80;99.90;;;;;;5074085;28;20454;-67
2023/09/26 07:10:45;;;;;;;964.93;902.27;;;11.90;99.90;;;;;;5074796;28;20460;-67
2023/09/26 07:13:13;;;;;;;950.97;889.47;;;12.00;99.90;;;;;;5074977;28;20971;-67
2023/09/26 07:15:41;;;;;;;936.70;876.60;;;12.10;99.90;;;;;;5075151;28;20565;-67
2023/09/26 07:18:10;;;;;;;927.80;868.17;;;12.10;99.90;;;;;;5075127;28;20826;-67
2023/09/26 07:20:38;;;;;;;916.80;859.40;;;12.20;99.90;;;;;;5075162;28;20483;-67
2023/09/26 07:23:05;;;;;;;901.83;846.43;;;12.30;99.90;;;;;;5074915;28;20452;-67
2023/09/26 07:25:33;;;;;;;904.60;848.90;;;12.40;99.90;;;;;;5074688;28;20455;-67
2023/09/26 07:28:00;;;;;;;902.77;846.30;;;12.50;99.90;;;;;;5074776;28;20450;-67
2023/09/26 07:30:27;;;;;;;870.00;817.27;;;12.60;99.90;;;;;;5074886;28;20453;-67
2023/09/26 07:32:54;;;;;;;874.37;821.33;;;12.70;99.90;;;;;;5074699;28;20535;-68
2023/09/26 07:35:21;;;;;;;871.10;818.50;;;12.80;99.90;;;;;;5074489;28;20454;-68
2023/09/26 07:37:48;;;;;;;809.60;763.30;;;12.90;99.90;;;;;;5074556;28;20457;-67
2023/09/26 07:40:15;;;;;;;807.83;762.13;;;13.00;99.90;;;;;;5074343;28;20787;-68
2023/09/26 07:42:43;;;;;;;787.93;743.53;;;13.10;99.90;;;;;;5074545;28;20450;-67
2023/09/26 07:45:11;;;;;;;759.93;720.13;;;13.20;99.90;;;;;;5074640;28;20824;-68
2023/09/26 07:47:38;;;;;;;670.47;639.17;;;13.30;99.90;;;;;;5074402;28;20944;-68
2023/09/26 07:50:07;;;;;;;678.83;647.03;;;13.40;99.90;;;;;;5074308;28;20542;-67
2023/09/26 07:52:33;;;;;;;667.10;636.77;;;13.60;99.90;;;;;;5074087;28;20463;-67
2023/09/26 07:55:00;;;;;;;508.77;488.93;;;13.70;99.90;;;;;;5074529;28;20447;-67
2023/09/26 07:57:27;;;;;;;489.73;471.03;;;13.80;99.90;;;;;;5073631;28;20478;-69
2023/09/26 07:59:55;;;;;;;352.67;340.90;;;13.90;99.90;;;;;;5074275;28;20446;-67
2023/09/26 08:02:22;;;;;;;305.03;294.30;;;14.00;99.90;;;;;;5074142;28;20832;-67
2023/09/26 08:04:49;;;;;;;335.30;324.07;;;14.20;99.90;;;;;;5074256;28;20446;-67
2023/09/26 08:07:16;;;;;;;303.70;293.77;;;14.40;99.90;;;;;;5074014;28;20451;-68
2023/09/26 08:09:43;;;;;;;192.63;185.60;;;14.60;99.90;;;;;;5074089;28;20457;-68
2023/09/26 08:12:10;;;;;;;118.63;113.67;;;14.70;99.90;;;;;;5074050;28;20450;-68
2023/09/26 08:14:36;;;;;;;62.43;59.30;;;15.00;99.90;;;;;;5074044;28;20793;-68
2023/09/26 08:17:04;;;;;;;62.50;59.50;;;15.10;99.90;;;;;;5074003;28;20475;-68
2023/09/26 08:19:31;;;;;;;63.10;60.07;;;15.20;99.90;;;;;;5073767;28;20810;-68
2023/09/26 08:21:58;;;;;;;22.97;21.10;;;15.40;99.90;;;;;;5073827;28;20452;-68
2023/09/26 08:24:25;;;;;;;25.57;23.87;;;15.70;99.90;;;;;;5073961;28;20464;-68
2023/09/26 08:26:52;;;;;;;11.13;9.03;;;16.10;99.90;;;;;;5073811;28;21028;-68
2023/09/26 08:29:18;;;;;;;11.77;7.80;;;16.50;99.90;;;;;;5073745;28;20446;-68
2023/09/26 08:31:45;;;;;;;8.73;6.13;;;16.90;99.90;;;;;;5073374;28;20463;-68
2023/09/26 08:34:14;;;;;;;10.30;7.10;;;17.20;99.90;;;;;;5073176;28;20465;-68
2023/09/26 08:36:40;;;;;;;9.90;5.83;;;17.50;99.90;;;;;;5073437;28;20572;-68
2023/09/26 08:39:08;;;;;;;8.97;6.60;;;17.80;98.20;;;;;;5073272;28;20449;-68
2023/09/26 08:41:37;;;;;;;8.67;5.50;;;18.10;97.60;;;;;;5073088;28;20452;-68
2023/09/26 08:44:04;;;;;;;8.70;5.77;;;18.40;94.40;;;;;;5073143;28;20967;-67
2023/09/26 08:46:32;;;;;;;8.03;6.07;;;18.60;94.50;;;;;;5072986;28;20449;-67
2023/09/26 08:49:03;;;;;;;7.90;5.30;;;18.80;85.00;;;;;;5073021;28;20826;-68
2023/09/26 08:51:31;;;;;;;10.77;6.03;;;19.20;85.30;;;;;;5073176;28;20454;-67
2023/09/26 08:53:58;;;;;;;10.47;5.03;;;19.40;85.50;;;;;;5073003;28;20544;-68
2023/09/26 08:56:25;;;;;;;9.47;5.30;;;19.70;83.30;;;;;;5073232;28;20476;-67
2023/09/26 08:58:55;;;;;;;9.57;5.23;;;20.20;78.30;;;;;;5072919;28;20932;-67
2023/09/26 09:01:23;;;;;;;9.37;6.10;;;20.40;70.50;;;;;;5073202;28;20460;-67
2023/09/26 09:03:49;;;;;;;12.33;6.23;;;20.70;62.50;;;;;;5072762;28;20663;-67
2023/09/26 09:06:16;;;;;;;9.00;4.93;;;21.10;62.80;;;;;;5072293;28;20450;-67
2023/09/26 09:08:45;;;;;;;11.30;4.53;;;21.10;59.40;;;;;;5072460;28;20421;-67
2023/09/26 09:11:12;;;;;;;8.37;4.90;;;21.20;54.30;;;;;;5072448;28;20508;-67
2023/09/26 09:13:40;;;;;;;10.57;4.60;;;21.50;54.70;;;;;;5072459;28;20452;-67
2023/09/26 09:16:12;;;;;;;9.07;5.10;;;21.80;54.20;;;;;;5072925;28;20481;-67
2023/09/26 09:18:41;;;;;;;9.73;4.90;;;22.20;46.50;;;;;;5072847;28;21001;-67
2023/09/26 09:21:27;;;;;;;8.30;3.90;;;22.40;46.60;;;;;;5072453;28;20804;-67
2023/09/26 09:23:56;;;;;;;7.50;3.97;;;22.50;37.60;;;;;;5072639;28;20454;-67
2023/09/26 09:26:24;;;;;;;13.33;5.10;;;22.40;37.50;;;;;;5072599;28;20983;-67
2023/09/26 09:28:52;;;;;;;7.87;4.30;;;22.60;37.70;;;;;;5072719;28;20454;-67
2023/09/26 09:31:19;;;;;;;9.70;4.20;;;22.50;37.70;;;;;;5072280;28;20450;-67
2023/09/26 09:33:47;;;;;;;8.37;4.20;;;22.80;33.60;;;;;;5072111;28;20958;-67
2023/09/26 09:36:15;;;;;;;8.50;3.87;;;22.90;29.10;;;;;;5072223;28;20964;-67
2023/09/26 09:38:42;;;;;;;8.50;4.60;;;23.10;29.20;;;;;;5072595;28;20446;-67
2023/09/26 09:41:13;;;;;;;9.23;3.97;;;22.90;27.00;;;;;;5071881;28;20457;-67
2023/09/26 09:43:40;;;;;;;6.63;3.90;;;22.90;25.50;;;;;;5072355;28;20478;-67
2023/09/26 09:46:10;;;;;;;7.20;3.40;;;23.20;26.40;;;;;;5072332;28;20472;-67
2023/09/26 09:48:41;;;;;;;6.63;3.50;;;23.60;22.30;;;;;;5072277;28;20462;-67
2023/09/26 09:51:11;;;;;;;7.97;3.93;;;23.90;18.90;;;;;;5072348;28;20457;-67
2023/09/26 09:53:40;;;;;;;8.30;3.50;;;24.50;15.50;;;;;;5072419;28;20457;-67
2023/09/26 09:56:08;;;;;;;6.33;3.20;;;24.70;15.60;;;;;;5072180;28;20447;-67
2023/09/26 09:58:40;;;;;;;9.90;4.47;;;24.90;15.70;;;;;;5072267;28;20888;-67
2023/09/26 10:01:08;;;;;;;6.60;3.50;;;25.20;15.90;;;;;;5071986;28;20938;-66
2023/09/26 10:03:36;;;;;;;9.00;3.37;;;25.20;11.90;;;;;;5072317;28;20491;-67
2023/09/26 10:06:08;;;;;;;10.00;3.97;;;25.50;8.40;;;;;;5071672;28;20495;-67
2023/09/26 10:08:37;;;;;;;10.13;3.60;;;25.70;8.50;;;;;;5072016;28;20446;-66
2023/09/26 10:11:06;;;;;;;7.63;3.80;;;25.80;8.60;;;;;;5071911;28;20504;-65
2023/09/26 10:13:33;;;;;;;13.00;3.33;;;26.20;1.00;;;;;;5071577;28;20446;-66
2023/09/26 10:16:11;;;;;;;6.90;4.57;;;26.30;1.00;;;;;;5072013;28;20446;-65
2023/09/26 10:18:40;;;;;;;10.33;4.27;;;26.20;1.00;;;;;;5071953;28;20945;-66
2023/09/26 10:21:21;;;;;;;7.80;4.27;;;26.30;1.00;;;;;;5073756;28;20446;-65
2023/09/26 10:24:21;;;;;;;9.90;4.50;;;26.50;1.00;;;;;;5076670;28;20782;-67
2023/09/26 10:26:49;;;;;;;8.00;3.57;;;27.10;1.00;;;;;;5076143;28;20821;-65
2023/09/26 10:29:23;;;;;;;10.93;3.30;;;27.10;1.00;;;;;;5075483;28;20442;-66
2023/09/26 10:31:54;;;;;;;8.93;4.07;;;27.20;1.00;;;;;;5074716;28;20428;-66
2023/09/26 10:34:24;;;;;;;11.23;4.73;;;26.90;1.00;;;;;;5076273;28;20288;-67
2023/09/26 10:36:51;;;;;;;7.63;4.40;;;26.90;1.00;;;;;;5076075;28;20474;-66
2023/09/26 10:39:17;;;;;;;8.00;2.70;;;27.20;1.00;;;;;;5076200;28;20937;-66
2023/09/26 10:41:45;;;;;;;6.50;3.13;;;27.70;1.00;;;;;;5075830;28;20450;-67
2023/09/26 10:44:11;;;;;;;7.43;2.83;;;28.20;1.00;;;;;;5076109;28;20443;-66
2023/09/26 10:46:38;;;;;;;5.97;2.90;;;28.20;1.00;;;;;;5076207;28;20938;-66
2023/09/26 10:49:06;;;;;;;7.70;2.40;;;28.30;1.00;;;;;;5076004;28;20446;-66
2023/09/26 10:51:34;;;;;;;9.73;2.80;;;28.70;1.00;;;;;;5076049;28;20427;-66
2023/09/26 10:54:01;;;;;;;6.83;2.53;;;28.10;1.00;;;;;;5076048;28;20476;-66
2023/09/26 10:56:28;;;;;;;6.97;3.33;;;28.00;1.00;;;;;;5075891;28;20446;-66
2023/09/26 10:58:55;;;;;;;9.17;3.07;;;27.40;1.00;;;;;;5076001;28;20450;-66
2023/09/26 11:01:37;;;;;;;6.87;3.00;;;27.50;1.00;;;;;;5075669;28;20858;-66
2023/09/26 11:04:06;;;;;;;8.43;3.60;;;27.70;1.00;;;;;;5075870;28;20446;-66
2023/09/26 11:06:33;;;;;;;9.30;3.63;;;28.10;1.00;;;;;;5075579;28;20453;-66
2023/09/26 11:09:00;;;;;;;7.30;3.50;;;28.00;1.00;;;;;;5075225;28;20937;-66
2023/09/26 11:11:27;;;;;;;6.00;2.50;;;28.50;1.00;;;;;;5075369;28;20464;-68
2023/09/26 11:13:55;;;;;;;11.70;3.40;;;28.50;1.00;;;;;;5075090;28;20925;-68
2023/09/26 11:16:21;;;;;;;6.40;2.83;;;29.10;1.00;;;;;;5075347;28;20447;-66
2023/09/26 11:18:54;;;;;;;7.90;3.50;;;29.60;1.00;;;;;;5075614;28;20452;-68
2023/09/26 11:21:22;;;;;;;6.77;3.17;;;29.80;1.00;;;;;;5075437;28;20505;-68
2023/09/26 11:23:49;;;;;;;8.00;3.70;;;29.80;1.00;;;;;;5075515;28;20446;-66
2023/09/26 11:26:16;;;;;;;8.33;4.00;;;30.00;1.00;;;;;;5075261;28;20452;-66
2023/09/26 11:28:43;;;;;;;6.57;2.90;;;30.30;1.00;;;;;;5075357;28;20508;-66
2023/09/26 11:31:10;;;;;;;6.63;2.77;;;30.40;1.00;;;;;;5075223;28;20425;-66
2023/09/26 11:33:38;;;;;;;8.20;3.37;;;30.80;1.00;;;;;;5074111;28;20458;-66
2023/09/26 11:36:05;;;;;;;7.97;3.13;;;30.90;1.00;;;;;;5075511;28;20450;-66
2023/09/26 11:38:34;;;;;;;8.00;3.20;;;30.90;1.00;;;;;;5075199;28;20478;-66
2023/09/26 11:41:01;;;;;;;5.83;2.77;;;30.80;1.00;;;;;;5074652;28;20500;-66
2023/09/26 11:43:27;;;;;;;6.87;3.27;;;30.50;1.00;;;;;;5075119;28;20533;-66
2023/09/26 11:46:02;;;;;;;6.67;2.97;;;30.90;1.00;;;;;;5075350;28;20469;-66
2023/09/26 11:48:29;;;;;;;7.60;3.37;;;30.70;1.00;;;;;;5075021;28;20473;-66
2023/09/26 11:50:56;;;;;;;6.00;3.03;;;30.60;1.00;;;;;;5074848;28;20456;-66
2023/09/26 11:53:25;;;;;;;7.87;3.03;;;31.30;1.00;;;;;;5074796;28;20931;-66
2023/09/26 11:55:54;;;;;;;8.23;2.70;;;31.60;1.00;;;;;;5074811;28;20523;-66
2023/09/26 11:58:20;;;;;;;7.43;3.07;;;31.90;1.00;;;;;;5074963;28;20463;-66
2023/09/26 12:00:47;;;;;;;5.63;2.63;;;31.00;1.00;;;;;;5074471;28;20905;-66
2023/09/26 12:03:14;;;;;;;9.67;3.57;;;31.30;1.00;;;;;;5074856;28;20447;-66
2023/09/26 12:05:41;;;;;;;9.50;4.03;;;31.30;1.00;;;;;;5074648;28;20446;-66
2023/09/26 12:08:08;;;;;;;8.50;2.60;;;31.30;1.00;;;;;;5074212;28;20481;-66
2023/09/26 12:10:35;;;;;;;6.53;3.03;;;31.20;1.00;;;;;;5074618;28;20458;-66
2023/09/26 12:13:06;;;;;;;6.07;2.73;;;31.00;1.00;;;;;;5074426;28;20930;-66
2023/09/26 12:15:33;;;;;;;8.00;3.00;;;31.60;1.00;;;;;;5074380;28;20453;-67
2023/09/26 12:18:00;;;;;;;6.40;2.60;;;31.60;1.00;;;;;;5074219;28;20446;-65
2023/09/26 12:20:28;;;;;;;8.60;3.50;;;31.60;1.00;;;;;;5073711;28;20934;-65
2023/09/26 12:22:57;;;;;;;7.83;3.20;;;31.90;1.00;;;;;;5073471;28;20457;-65
2023/09/26 12:25:27;;;;;;;6.77;2.90;;;32.10;1.00;;;;;;5074050;28;20421;-68